This is the latest recevied weather packets stored in our database for station/object OE5RPP. If no packets are shown the sender has not sent any weather packets the latest 10 day(s).
| Time | Temp. | Humidity | Pressure | Rain* | Wind** | Luminosity | Snow |
|---|---|---|---|---|---|---|---|
| 1788596238 | 16.67° C | 54% | 1025.9 hPa | 0 mm | - | - | - |
| 1788595639 | 16.11° C | 53% | 1025.9 hPa | 0 mm | - | - | - |
| 1788595039 | 16.11° C | 54% | 1025.9 hPa | 1.02 mm | - | - | - |
| 1788594438 | 16.11° C | 53% | 1025.9 hPa | 1.02 mm | - | - | - |
| 1788593838 | 15.56° C | 51% | 1025.9 hPa | 0 mm | - | - | - |
| 1788593238 | 15.56° C | 50% | 1025.9 hPa | 0 mm | - | - | - |
| 1788592639 | 15.56° C | 49% | 1025.9 hPa | 0 mm | - | - | - |
| 1788592038 | 15.56° C | 49% | 1025.9 hPa | 0 mm | - | - | - |
| 1788591438 | 15° C | 47% | 1025.9 hPa | 1.02 mm | - | - | - |
| 1788590839 | 15° C | 47% | 1025.9 hPa | 1.02 mm | - | - | - |
| 1788590239 | 15° C | 45% | 1025.9 hPa | 0 mm | - | - | - |
| 1788589639 | 15.56° C | 45% | 1025.9 hPa | 0 mm | - | - | - |
| 1788589038 | 16.11° C | 36% | 1025.9 hPa | 0 mm | - | - | - |
| 1788588439 | 16.67° C | 35% | 1024.9 hPa | 0 mm | - | - | - |
| 1788587839 | 16.67° C | 34% | 1024.9 hPa | 0 mm | - | - | - |
| 1788565075 | 25.56° C | 17% | 1018.9 hPa | 0 mm | - | - | - |
| 1788563276 | 25.56° C | 17% | 1018.9 hPa | 0 mm | - | - | - |
| 1788560277 | 25° C | 17% | 1018.9 hPa | 0 mm | - | - | - |
| 1788559677 | 25° C | 17% | 1018.9 hPa | 0 mm | - | - | - |
| 1788557276 | 25° C | 17% | 1018.9 hPa | 0 mm | - | - | - |
| 1788555476 | 25.56° C | 17% | 1018.9 hPa | 0 mm | - | - | - |
| 1788550076 | 23.89° C | 18% | 1018.9 hPa | 0 mm | - | - | - |
| 1788547077 | 25.56° C | 17% | 1017.9 hPa | 0 mm | - | - | - |
| 1788545875 | 25.56° C | 17% | 1017.9 hPa | 0 mm | - | - | - |
| 1788542277 | 28.33° C | 15% | 1017.9 hPa | 0 mm | - | - | - |
* Rain latest hour (hover to see other rain measurements)
** Current wind speed in m/s (hover to see current wind gust speed)